createdAt,value
2022-11-16T00:00:05.567Z,28.33
2022-11-16T00:02:32.867Z,26.77
2022-11-16T00:04:59.740Z,25.65
2022-11-16T00:07:26.492Z,25.88
2022-11-16T00:09:53.219Z,27.00
2022-11-16T00:12:20.038Z,26.45
2022-11-16T00:14:46.868Z,27.90
2022-11-16T00:17:13.615Z,26.58
2022-11-16T00:19:40.615Z,25.98
2022-11-16T00:22:07.333Z,25.17
2022-11-16T00:24:34.435Z,25.15
2022-11-16T00:27:01.137Z,26.02
2022-11-16T00:29:28.021Z,25.42
2022-11-16T00:31:55.691Z,26.00
2022-11-16T00:34:23.517Z,25.95
2022-11-16T00:36:50.639Z,24.50
2022-11-16T00:39:19.130Z,25.02
2022-11-16T00:41:46.682Z,24.42
2022-11-16T00:44:13.483Z,24.17
2022-11-16T00:46:40.941Z,25.92
2022-11-16T00:49:08.048Z,26.02
2022-11-16T00:51:35.656Z,23.98
2022-11-16T00:54:03.005Z,23.95
2022-11-16T00:56:29.743Z,22.95
2022-11-16T00:58:56.390Z,22.42
2022-11-16T01:01:23.168Z,22.60
2022-11-16T01:03:50.171Z,23.02
2022-11-16T01:06:17.725Z,24.15
2022-11-16T01:08:45.011Z,22.92
2022-11-16T01:11:33.106Z,21.88
2022-11-16T01:14:02.438Z,22.40
2022-11-16T01:16:29.299Z,22.90
2022-11-16T01:18:56.081Z,22.75
2022-11-16T01:21:23.414Z,23.55
2022-11-16T01:23:50.949Z,21.90
2022-11-16T01:26:17.808Z,22.40
2022-11-16T01:28:44.612Z,22.08
2022-11-16T01:31:11.684Z,21.50
2022-11-16T01:33:38.369Z,22.85
2022-11-16T01:36:14.589Z,23.13
2022-11-16T01:38:43.237Z,22.58
2022-11-16T01:41:14.156Z,22.15
2022-11-16T01:43:55.152Z,22.10
2022-11-16T01:46:22.579Z,22.05
2022-11-16T01:48:53.555Z,21.55
2022-11-16T01:51:21.291Z,24.88
2022-11-16T01:53:48.064Z,23.10
2022-11-16T01:56:14.737Z,22.65
2022-11-16T01:58:41.736Z,23.85
2022-11-16T02:01:08.451Z,23.75
2022-11-16T02:03:37.727Z,22.77
2022-11-16T02:06:28.925Z,23.88
2022-11-16T02:09:26.299Z,22.70
2022-11-16T02:12:02.380Z,22.35
2022-11-16T02:14:48.102Z,22.42
2022-11-16T02:17:29.895Z,21.45
2022-11-16T02:19:56.486Z,23.00
2022-11-16T02:22:25.937Z,22.98
2022-11-16T02:24:55.340Z,22.17
2022-11-16T02:27:37.533Z,21.42
2022-11-16T02:30:05.545Z,22.83
2022-11-16T02:32:39.315Z,19.80
2022-11-16T02:35:20.490Z,22.50
2022-11-16T02:37:57.780Z,22.45
2022-11-16T02:40:26.750Z,23.25
2022-11-16T02:42:58.327Z,20.25
2022-11-16T02:45:28.242Z,22.17
2022-11-16T02:47:57.679Z,22.05
2022-11-16T02:50:25.634Z,21.80
2022-11-16T02:52:52.556Z,21.13
2022-11-16T02:55:19.230Z,21.63
2022-11-16T02:57:51.977Z,21.77
2022-11-16T03:00:21.442Z,21.58
2022-11-16T03:02:59.028Z,20.33
2022-11-16T03:05:33.968Z,22.75
2022-11-16T03:08:34.477Z,21.48
2022-11-16T03:11:23.961Z,21.10
2022-11-16T03:13:51.236Z,20.42
2022-11-16T03:16:26.197Z,21.95
2022-11-16T03:18:54.121Z,21.55
2022-11-16T03:21:52.802Z,21.00
2022-11-16T03:24:20.539Z,22.33
2022-11-16T03:26:55.351Z,21.00
2022-11-16T03:29:30.167Z,22.67
2022-11-16T03:32:04.442Z,21.92
2022-11-16T03:34:33.604Z,22.35
2022-11-16T03:37:00.808Z,23.25
2022-11-16T03:39:32.122Z,23.17
2022-11-16T03:42:00.826Z,22.00
2022-11-16T03:44:28.182Z,23.13
2022-11-16T03:46:55.020Z,23.42
2022-11-16T03:49:22.820Z,22.73
2022-11-16T03:51:50.263Z,23.65
2022-11-16T03:54:17.289Z,23.40
2022-11-16T03:56:44.023Z,25.52
2022-11-16T03:59:10.774Z,23.13
2022-11-16T04:01:43.287Z,22.85
2022-11-16T04:04:31.235Z,23.50
2022-11-16T04:07:21.108Z,25.33
2022-11-16T04:10:20.133Z,22.70
2022-11-16T04:13:05.679Z,24.63
2022-11-16T04:15:50.646Z,24.90
2022-11-16T04:18:36.488Z,24.45
2022-11-16T04:21:22.467Z,25.45
2022-11-16T04:24:07.985Z,26.33
2022-11-16T04:26:53.445Z,29.48
2022-11-16T04:29:20.383Z,29.33
2022-11-16T04:32:05.660Z,26.60
2022-11-16T04:34:50.815Z,29.23
2022-11-16T04:37:37.216Z,29.05
2022-11-16T04:40:04.929Z,30.17
2022-11-16T04:42:31.740Z,28.75
2022-11-16T04:45:16.990Z,28.90
2022-11-16T04:47:44.045Z,29.00
2022-11-16T04:50:10.935Z,27.83
2022-11-16T04:52:37.657Z,29.50
2022-11-16T04:55:04.686Z,26.08
2022-11-16T04:57:31.383Z,27.33
2022-11-16T04:59:58.167Z,28.95
2022-11-16T05:02:24.827Z,29.67
2022-11-16T05:04:51.532Z,28.02
2022-11-16T05:07:18.590Z,29.80
2022-11-16T05:09:47.648Z,28.35
2022-11-16T05:12:26.312Z,27.35
2022-11-16T05:14:54.995Z,29.52
2022-11-16T05:17:22.564Z,30.20
2022-11-16T05:20:08.238Z,30.05
2022-11-16T05:22:35.594Z,31.50
2022-11-16T05:25:03.256Z,29.48
2022-11-16T05:27:30.711Z,29.73
2022-11-16T05:29:57.366Z,31.33
2022-11-16T05:32:25.012Z,30.60
2022-11-16T05:34:51.982Z,31.23
2022-11-16T05:37:19.417Z,31.92
2022-11-16T05:39:46.159Z,31.42
2022-11-16T05:42:13.615Z,31.13
2022-11-16T05:44:40.267Z,31.65
2022-11-16T05:47:07.001Z,31.05
2022-11-16T05:49:33.672Z,33.28
2022-11-16T05:52:00.361Z,31.42
2022-11-16T05:54:27.225Z,30.85
2022-11-16T05:56:54.679Z,30.45
2022-11-16T05:59:23.041Z,31.88
2022-11-16T06:01:50.611Z,32.03
2022-11-16T06:04:24.440Z,32.13
2022-11-16T06:06:52.034Z,33.00
2022-11-16T06:09:18.808Z,35.63
2022-11-16T06:11:45.670Z,35.15
2022-11-16T06:14:12.292Z,36.33
2022-11-16T06:16:39.032Z,38.47
2022-11-16T06:19:05.880Z,36.80
2022-11-16T06:21:33.228Z,35.78
2022-11-16T06:24:00.026Z,36.03
2022-11-16T06:26:26.717Z,35.63
2022-11-16T06:28:55.025Z,37.20
2022-11-16T06:31:22.346Z,36.25
2022-11-16T06:33:52.059Z,36.83
2022-11-16T06:36:18.697Z,37.28
2022-11-16T06:38:45.549Z,36.58
2022-11-16T06:41:12.280Z,36.03
2022-11-16T06:43:39.013Z,34.15
2022-11-16T06:46:05.958Z,37.22
2022-11-16T06:48:34.182Z,36.67
2022-11-16T06:51:01.288Z,37.45
2022-11-16T06:53:29.586Z,37.03
2022-11-16T06:56:01.409Z,38.92
2022-11-16T06:58:30.460Z,36.47
2022-11-16T07:00:57.862Z,38.25
2022-11-16T07:03:24.733Z,37.10
2022-11-16T07:05:51.549Z,37.63
2022-11-16T07:08:18.326Z,35.72
2022-11-16T07:10:45.035Z,34.17
2022-11-16T07:13:11.705Z,35.50
2022-11-16T07:15:38.454Z,34.55
2022-11-16T07:18:08.222Z,35.00
2022-11-16T07:20:35.161Z,37.10
2022-11-16T07:23:03.290Z,36.85
2022-11-16T07:25:32.129Z,36.67
2022-11-16T07:28:01.133Z,36.80
2022-11-16T07:30:27.865Z,36.15
2022-11-16T07:32:59.095Z,35.13
2022-11-16T07:35:26.054Z,37.15
2022-11-16T07:37:52.806Z,35.47
2022-11-16T07:40:20.157Z,35.70
2022-11-16T07:42:47.095Z,36.72
2022-11-16T07:45:14.044Z,37.72
2022-11-16T07:47:40.876Z,38.22
2022-11-16T07:50:08.035Z,36.78
2022-11-16T07:52:34.672Z,38.45
2022-11-16T07:55:02.126Z,37.88
2022-11-16T07:57:28.871Z,36.83
2022-11-16T07:59:55.512Z,37.13
2022-11-16T08:02:22.251Z,37.63
2022-11-16T08:04:48.887Z,38.00
2022-11-16T08:07:16.800Z,37.38
2022-11-16T08:09:43.881Z,38.65
2022-11-16T08:12:10.637Z,38.33
2022-11-16T08:14:37.376Z,39.75
2022-11-16T08:17:05.274Z,36.63
2022-11-16T08:19:31.879Z,36.47
2022-11-16T08:21:58.516Z,36.50
2022-11-16T08:24:25.407Z,37.97
2022-11-16T08:26:52.148Z,37.10
2022-11-16T08:29:19.047Z,38.47
2022-11-16T08:31:46.434Z,37.55
2022-11-16T08:34:13.226Z,38.03
2022-11-16T08:36:39.988Z,37.47
2022-11-16T08:39:06.620Z,37.28
2022-11-16T08:41:36.037Z,35.95
2022-11-16T08:44:02.657Z,35.67
2022-11-16T08:46:29.413Z,36.25
2022-11-16T08:48:57.247Z,35.90
2022-11-16T08:51:24.724Z,34.97
2022-11-16T08:53:56.704Z,37.30
2022-11-16T08:56:23.683Z,35.13
2022-11-16T08:58:58.119Z,29.85
2022-11-16T09:01:27.656Z,31.67
2022-11-16T09:03:54.714Z,29.77
2022-11-16T09:06:22.170Z,30.80
2022-11-16T09:08:48.930Z,30.92
2022-11-16T09:11:18.372Z,30.00
2022-11-16T09:13:46.770Z,29.98
2022-11-16T09:16:16.860Z,29.98
2022-11-16T09:18:47.663Z,29.35
2022-11-16T09:21:19.485Z,30.23
2022-11-16T09:23:47.214Z,29.35
2022-11-16T09:26:14.533Z,26.90
2022-11-16T09:28:41.386Z,27.38
2022-11-16T09:31:09.247Z,27.80
2022-11-16T09:33:36.977Z,27.98
2022-11-16T09:36:07.430Z,27.00
2022-11-16T09:39:23.734Z,25.95
2022-11-16T09:41:45.123Z,26.60
2022-11-16T09:44:37.923Z,22.27
2022-11-16T09:47:09.489Z,20.77
2022-11-16T09:49:42.409Z,22.00
2022-11-16T09:52:17.344Z,19.17
2022-11-16T09:54:45.549Z,19.55
2022-11-16T09:57:15.247Z,20.20
2022-11-16T09:59:46.060Z,17.98
2022-11-16T10:02:20.312Z,14.80
2022-11-16T10:05:00.671Z,14.68
2022-11-16T10:07:32.973Z,13.57
2022-11-16T10:09:59.890Z,14.35
2022-11-16T10:12:48.131Z,13.35
2022-11-16T10:15:26.301Z,13.40
2022-11-16T10:18:07.585Z,14.05
2022-11-16T10:20:55.967Z,14.63
2022-11-16T10:23:42.430Z,14.45
2022-11-16T10:26:22.293Z,13.68
2022-11-16T10:29:10.525Z,13.93
2022-11-16T10:31:57.974Z,14.25
2022-11-16T10:34:31.489Z,13.63
2022-11-16T10:37:03.518Z,15.25
2022-11-16T10:39:31.787Z,14.25
2022-11-16T10:42:07.291Z,14.05
2022-11-16T10:44:43.597Z,14.00
2022-11-16T10:47:11.339Z,15.20
2022-11-16T10:49:47.181Z,14.90
2022-11-16T10:52:13.768Z,13.90
2022-11-16T10:54:44.253Z,15.18
2022-11-16T10:57:14.656Z,15.02
2022-11-16T10:59:46.874Z,15.00
2022-11-16T11:02:32.827Z,13.88
2022-11-16T11:05:02.537Z,15.73
2022-11-16T11:07:37.981Z,15.52
2022-11-16T11:10:06.414Z,16.27
2022-11-16T11:12:39.016Z,16.10
2022-11-16T11:15:27.287Z,17.58
2022-11-16T11:18:20.704Z,16.80
2022-11-16T11:21:10.293Z,17.90
2022-11-16T11:23:44.616Z,17.23
2022-11-16T11:26:34.680Z,17.60
2022-11-16T11:29:28.580Z,15.05
2022-11-16T11:31:59.576Z,15.45
2022-11-16T11:34:28.596Z,15.82
2022-11-16T11:37:05.561Z,14.48
2022-11-16T11:39:35.284Z,15.63
2022-11-16T11:42:06.655Z,15.48
2022-11-16T11:44:52.202Z,16.88
2022-11-16T11:47:57.445Z,17.60
2022-11-16T11:50:45.123Z,18.10
2022-11-16T11:53:19.396Z,18.05
2022-11-16T11:55:46.202Z,18.38
2022-11-16T11:58:17.200Z,17.30
2022-11-16T12:01:05.514Z,16.73
2022-11-16T12:03:50.790Z,17.33
2022-11-16T12:06:31.661Z,17.80
2022-11-16T12:09:08.755Z,16.00
2022-11-16T12:11:48.262Z,18.13
2022-11-16T12:14:30.774Z,18.17
2022-11-16T12:17:02.856Z,19.67
2022-11-16T12:19:59.678Z,18.67
2022-11-16T12:22:26.447Z,18.88
2022-11-16T12:25:01.938Z,18.58
2022-11-16T12:27:47.467Z,19.00
2022-11-16T12:30:18.261Z,18.70
2022-11-16T12:33:03.346Z,19.67
2022-11-16T12:35:47.884Z,21.05
2022-11-16T12:38:42.272Z,18.75
2022-11-16T12:41:36.211Z,20.20
2022-11-16T12:44:10.263Z,20.35
2022-11-16T12:46:46.003Z,18.30
2022-11-16T12:49:39.703Z,18.33
2022-11-16T12:52:12.227Z,17.90
2022-11-16T12:55:04.373Z,18.33
2022-11-16T12:58:08.370Z,16.90
2022-11-16T13:01:07.466Z,18.15
2022-11-16T13:03:34.604Z,17.75
2022-11-16T13:06:06.858Z,17.77
2022-11-16T13:08:51.376Z,17.80
2022-11-16T13:11:25.627Z,18.77
2022-11-16T13:13:57.470Z,16.95
2022-11-16T13:16:24.487Z,17.60
2022-11-16T13:18:51.840Z,18.40
2022-11-16T13:21:32.322Z,17.83
2022-11-16T13:24:33.187Z,17.58
2022-11-16T13:27:18.478Z,17.27
2022-11-16T13:29:59.407Z,17.55
2022-11-16T13:32:44.460Z,15.82
2022-11-16T13:35:16.107Z,17.50
2022-11-16T13:37:52.455Z,16.65
2022-11-16T13:40:27.962Z,17.35
2022-11-16T13:43:09.580Z,16.08
2022-11-16T13:45:43.605Z,16.25
2022-11-16T13:48:39.698Z,14.77
2022-11-16T13:51:08.100Z,14.95
2022-11-16T13:56:29.261Z,15.55
2022-11-16T13:58:57.787Z,15.75
2022-11-16T14:01:24.535Z,15.50
2022-11-16T14:03:52.560Z,13.55
2022-11-16T14:06:19.337Z,14.82
2022-11-16T14:08:47.612Z,14.27
2022-11-16T14:11:46.614Z,15.43
2022-11-16T14:14:51.875Z,13.43
2022-11-16T14:17:49.631Z,12.93
2022-11-16T14:20:26.503Z,13.95
2022-11-16T14:23:49.660Z,13.38
2022-11-16T14:26:48.596Z,13.35
2022-11-16T14:29:15.653Z,13.80
2022-11-16T14:31:57.079Z,13.73
2022-11-16T14:34:28.485Z,14.30
2022-11-16T14:36:55.316Z,14.15
2022-11-16T14:39:24.029Z,14.50
2022-11-16T14:41:50.862Z,13.75
2022-11-16T14:44:22.818Z,14.88
2022-11-16T14:46:49.650Z,14.02
2022-11-16T14:49:20.823Z,13.82
2022-11-16T14:51:50.262Z,14.70
2022-11-16T14:54:39.980Z,14.25
2022-11-16T14:57:12.849Z,13.73
2022-11-16T14:59:39.389Z,14.05
2022-11-16T15:02:18.409Z,13.88
2022-11-16T15:04:45.028Z,15.38
2022-11-16T15:07:12.940Z,16.27
2022-11-16T15:09:42.626Z,15.57
2022-11-16T15:12:36.033Z,14.57
2022-11-16T15:15:11.321Z,14.73
2022-11-16T15:17:43.573Z,14.45
2022-11-16T15:20:17.995Z,14.52
2022-11-16T15:22:47.286Z,14.45
2022-11-16T15:25:46.593Z,13.95
2022-11-16T15:28:18.875Z,15.05
2022-11-16T15:30:49.089Z,14.48
2022-11-16T15:33:21.587Z,14.60
2022-11-16T15:35:48.203Z,14.65
2022-11-16T15:38:19.165Z,14.38
2022-11-16T15:41:01.652Z,14.52
2022-11-16T15:43:31.556Z,13.80
2022-11-16T15:45:59.902Z,13.30
2022-11-16T15:48:27.670Z,14.43
2022-11-16T15:51:12.660Z,12.20
2022-11-16T15:53:47.195Z,12.45
2022-11-16T15:56:19.775Z,13.35
2022-11-16T15:58:46.721Z,12.43
2022-11-16T16:01:14.538Z,12.05
2022-11-16T16:04:02.626Z,12.32
2022-11-16T16:06:57.994Z,13.70
2022-11-16T16:09:29.381Z,14.05
2022-11-16T16:12:22.837Z,13.43
2022-11-16T16:14:50.982Z,12.02
2022-11-16T16:17:28.777Z,12.57
2022-11-16T16:20:03.229Z,12.00
2022-11-16T16:22:33.118Z,10.82
2022-11-16T16:25:01.559Z,10.88
2022-11-16T16:27:29.559Z,10.25
2022-11-16T16:29:57.633Z,10.55
2022-11-16T16:32:34.488Z,10.10
2022-11-16T16:35:03.019Z,9.82
2022-11-16T16:37:31.684Z,10.95
2022-11-16T16:39:59.208Z,11.27
2022-11-16T16:42:26.210Z,12.27
2022-11-16T16:44:53.767Z,12.43
2022-11-16T16:47:21.155Z,11.55
2022-11-16T16:49:48.667Z,10.73
2022-11-16T16:52:15.246Z,11.25
2022-11-16T16:54:42.096Z,12.05
2022-11-16T16:57:15.794Z,11.88
2022-11-16T16:59:45.418Z,11.07
2022-11-16T17:02:12.803Z,10.00
2022-11-16T17:04:39.560Z,11.45
2022-11-16T17:07:06.162Z,10.65
2022-11-16T17:09:32.786Z,10.07
2022-11-16T17:11:59.355Z,11.13
2022-11-16T17:14:26.085Z,10.15
2022-11-16T17:16:52.689Z,10.10
2022-11-16T17:19:20.055Z,10.27
2022-11-16T17:21:46.895Z,10.75
2022-11-16T17:24:13.553Z,10.98
2022-11-16T17:26:43.188Z,11.45
2022-11-16T17:29:09.861Z,11.52
2022-11-16T17:31:36.436Z,10.48
2022-11-16T17:34:06.442Z,10.68
2022-11-16T17:36:36.294Z,11.05
2022-11-16T17:39:03.311Z,12.80
2022-11-16T17:41:29.905Z,10.77
2022-11-16T17:43:57.029Z,10.30
2022-11-16T17:46:25.789Z,11.25
2022-11-16T17:48:52.720Z,11.00
2022-11-16T17:51:21.710Z,11.77
2022-11-16T17:53:49.860Z,10.35
2022-11-16T17:56:20.517Z,10.15
2022-11-16T17:58:47.426Z,10.25
2022-11-16T18:01:14.314Z,10.35
2022-11-16T18:03:41.253Z,8.95
2022-11-16T18:06:13.619Z,9.70
2022-11-16T18:08:40.992Z,9.68
2022-11-16T18:11:22.166Z,9.85
2022-11-16T18:13:55.809Z,9.65
2022-11-16T18:16:24.458Z,9.80
2022-11-16T18:18:56.715Z,9.27
2022-11-16T18:21:23.756Z,9.35
2022-11-16T18:23:50.407Z,9.50
2022-11-16T18:26:18.984Z,8.50
2022-11-16T18:28:46.347Z,9.50
2022-11-16T18:31:15.647Z,9.30
2022-11-16T18:33:43.135Z,8.95
2022-11-16T18:36:10.586Z,8.77
2022-11-16T18:38:37.670Z,7.80
2022-11-16T18:41:05.365Z,8.60
2022-11-16T18:43:34.248Z,8.45
2022-11-16T18:46:01.413Z,8.95
2022-11-16T18:48:28.252Z,8.98
2022-11-16T18:51:02.366Z,7.97
2022-11-16T18:53:29.819Z,8.65
2022-11-16T18:55:58.277Z,8.05
2022-11-16T19:01:14.705Z,7.85
2022-11-16T19:03:41.596Z,8.07
2022-11-16T19:06:09.498Z,8.23
2022-11-16T19:08:37.336Z,7.13
2022-11-16T19:11:08.979Z,7.40
2022-11-16T19:13:35.881Z,6.60
2022-11-16T19:16:03.002Z,7.32
2022-11-16T19:18:29.739Z,7.90
2022-11-16T19:21:09.801Z,6.95
2022-11-16T19:23:38.087Z,6.63
2022-11-16T19:26:05.324Z,7.00
2022-11-16T19:28:38.475Z,7.03
2022-11-16T19:31:09.130Z,7.13
2022-11-16T19:33:36.446Z,6.78
2022-11-16T19:36:14.175Z,6.78
2022-11-16T19:38:41.115Z,6.85
2022-11-16T19:41:08.433Z,6.47
2022-11-16T19:43:37.693Z,6.50
2022-11-16T19:46:06.466Z,6.30
2022-11-16T19:48:33.605Z,6.28
2022-11-16T19:51:14.544Z,5.78
2022-11-16T19:53:41.184Z,5.95
2022-11-16T19:56:11.726Z,5.75
2022-11-16T19:58:38.806Z,6.60
2022-11-16T20:01:06.790Z,6.45
2022-11-16T20:03:33.988Z,6.00
2022-11-16T20:06:08.437Z,5.75
2022-11-16T20:08:35.857Z,6.05
2022-11-16T20:11:10.752Z,5.38
2022-11-16T20:13:38.631Z,5.38
2022-11-16T20:16:07.076Z,6.30
2022-11-16T20:18:37.291Z,6.43
2022-11-16T20:21:08.021Z,5.65
2022-11-16T20:23:35.446Z,5.72
2022-11-16T20:26:06.095Z,6.20
2022-11-16T20:28:40.207Z,6.28
2022-11-16T20:31:17.818Z,6.43
2022-11-16T20:33:52.345Z,5.57
2022-11-16T20:36:19.720Z,5.82
2022-11-16T20:38:46.417Z,6.10
2022-11-16T20:41:13.875Z,5.10
2022-11-16T20:43:41.545Z,6.28
2022-11-16T20:46:09.415Z,6.22
2022-11-16T20:48:36.766Z,5.40
2022-11-16T20:51:04.113Z,6.00
2022-11-16T20:53:30.757Z,5.75
2022-11-16T20:56:02.649Z,6.10
2022-11-16T20:58:30.995Z,5.55
2022-11-16T21:01:31.472Z,6.00
2022-11-16T21:04:00.207Z,6.20
2022-11-16T21:06:27.356Z,5.90
2022-11-16T21:08:54.714Z,6.57
2022-11-16T21:11:25.086Z,6.07
2022-11-16T21:14:24.753Z,6.20
2022-11-16T21:16:51.391Z,6.60
2022-11-16T21:19:18.128Z,6.47
2022-11-16T21:21:44.704Z,6.85
2022-11-16T21:24:11.512Z,6.40
2022-11-16T21:26:38.247Z,6.93
2022-11-16T21:29:05.195Z,6.20
2022-11-16T21:31:33.896Z,6.80
2022-11-16T21:34:01.237Z,7.05
2022-11-16T21:36:30.119Z,6.60
2022-11-16T21:38:58.179Z,6.05
2022-11-16T21:41:25.545Z,6.35
2022-11-16T21:43:52.385Z,6.93
2022-11-16T21:46:25.001Z,6.68
2022-11-16T21:48:52.952Z,7.70
2022-11-16T21:51:21.527Z,7.05
2022-11-16T21:53:48.799Z,6.95
2022-11-16T21:56:17.559Z,6.70
2022-11-16T21:58:44.610Z,5.95
2022-11-16T22:01:12.653Z,7.03
2022-11-16T22:03:39.831Z,6.53
2022-11-16T22:06:26.429Z,6.80
2022-11-16T22:08:53.069Z,6.95
2022-11-16T22:11:22.267Z,6.38
2022-11-16T22:13:49.760Z,6.03
2022-11-16T22:16:17.957Z,6.03
2022-11-16T22:18:46.804Z,6.22
2022-11-16T22:21:13.583Z,6.30
2022-11-16T22:23:40.884Z,6.30
2022-11-16T22:26:09.731Z,6.72
2022-11-16T22:28:36.618Z,6.80
2022-11-16T22:31:08.059Z,6.13
2022-11-16T22:33:35.296Z,6.20
2022-11-16T22:36:02.278Z,6.32
2022-11-16T22:38:28.953Z,6.57
2022-11-16T22:40:56.476Z,5.90
2022-11-16T22:43:25.405Z,5.63
2022-11-16T22:45:52.075Z,6.05
2022-11-16T22:48:18.737Z,5.80
2022-11-16T22:50:45.659Z,6.00
2022-11-16T22:53:12.526Z,5.90
2022-11-16T22:55:39.443Z,6.00
2022-11-16T22:58:06.157Z,6.78
2022-11-16T23:00:37.454Z,6.28
2022-11-16T23:03:07.552Z,6.45
2022-11-16T23:05:34.238Z,5.93
2022-11-16T23:08:00.966Z,6.25
2022-11-16T23:10:29.099Z,6.10
2022-11-16T23:13:14.514Z,6.10
2022-11-16T23:15:50.127Z,6.30
2022-11-16T23:18:17.656Z,6.50
2022-11-16T23:21:02.885Z,5.72
2022-11-16T23:23:48.369Z,6.40
2022-11-16T23:26:40.277Z,6.63
2022-11-16T23:29:09.174Z,6.72
2022-11-16T23:31:37.062Z,6.80
2022-11-16T23:34:04.237Z,6.18
2022-11-16T23:36:30.997Z,7.32
2022-11-16T23:38:57.891Z,7.28
2022-11-16T23:41:43.352Z,6.93
2022-11-16T23:44:10.199Z,6.65
2022-11-16T23:46:36.858Z,7.07
2022-11-16T23:49:03.552Z,7.28
2022-11-16T23:51:30.308Z,7.13
2022-11-16T23:53:57.149Z,6.80
2022-11-16T23:56:24.300Z,6.85
2022-11-16T23:58:51.141Z,6.45
